sensor_id;sensor_type;location;lat;lon;timestamp;temperature;humidity
18408;DHT22;9330;52.210;21.174;2022-10-16T00:00:48;14.00;99.90
18408;DHT22;9330;52.210;21.174;2022-10-16T00:03:15;14.00;99.90
18408;DHT22;9330;52.210;21.174;2022-10-16T00:05:43;14.10;99.90
18408;DHT22;9330;52.210;21.174;2022-10-16T00:08:11;14.00;99.90
18408;DHT22;9330;52.210;21.174;2022-10-16T00:10:40;14.00;99.90
18408;DHT22;9330;52.210;21.174;2022-10-16T00:13:07;14.00;99.90
18408;DHT22;9330;52.210;21.174;2022-10-16T00:15:35;13.90;99.90
18408;DHT22;9330;52.210;21.174;2022-10-16T00:18:04;13.90;99.90
18408;DHT22;9330;52.210;21.174;2022-10-16T00:20:34;13.90;99.90
18408;DHT22;9330;52.210;21.174;2022-10-16T00:23:02;13.90;99.90
18408;DHT22;9330;52.210;21.174;2022-10-16T00:25:29;13.90;99.90
18408;DHT22;9330;52.210;21.174;2022-10-16T00:27:59;13.90;99.90
18408;DHT22;9330;52.210;21.174;2022-10-16T00:30:27;13.90;99.90
18408;DHT22;9330;52.210;21.174;2022-10-16T00:32:54;13.90;99.90
18408;DHT22;9330;52.210;21.174;2022-10-16T00:35:21;13.80;99.90
18408;DHT22;9330;52.210;21.174;2022-10-16T00:37:48;13.80;99.90
18408;DHT22;9330;52.210;21.174;2022-10-16T00:40:16;13.90;99.90
18408;DHT22;9330;52.210;21.174;2022-10-16T00:42:43;13.80;99.90
18408;DHT22;9330;52.210;21.174;2022-10-16T00:45:12;13.80;99.90
18408;DHT22;9330;52.210;21.174;2022-10-16T00:47:42;13.70;99.90
18408;DHT22;9330;52.210;21.174;2022-10-16T00:53:29;13.70;99.90
18408;DHT22;9330;52.210;21.174;2022-10-16T00:55:57;13.70;99.90
18408;DHT22;9330;52.210;21.174;2022-10-16T00:58:24;13.60;99.90
18408;DHT22;9330;52.210;21.174;2022-10-16T01:00:53;13.70;99.90
18408;DHT22;9330;52.210;21.174;2022-10-16T01:03:27;13.70;99.90
18408;DHT22;9330;52.210;21.174;2022-10-16T01:06:01;13.70;99.90
18408;DHT22;9330;52.210;21.174;2022-10-16T01:08:36;13.70;99.90
18408;DHT22;9330;52.210;21.174;2022-10-16T01:11:10;13.70;99.90
18408;DHT22;9330;52.210;21.174;2022-10-16T01:13:42;13.70;99.90
18408;DHT22;9330;52.210;21.174;2022-10-16T01:16:17;13.80;99.90
18408;DHT22;9330;52.210;21.174;2022-10-16T01:18:54;13.80;99.90
18408;DHT22;9330;52.210;21.174;2022-10-16T01:21:27;13.70;99.90
18408;DHT22;9330;52.210;21.174;2022-10-16T01:24:01;13.70;99.90
18408;DHT22;9330;52.210;21.174;2022-10-16T01:26:40;13.60;99.90
18408;DHT22;9330;52.210;21.174;2022-10-16T01:29:16;13.50;99.90
18408;DHT22;9330;52.210;21.174;2022-10-16T01:31:49;13.50;99.90
18408;DHT22;9330;52.210;21.174;2022-10-16T01:34:22;13.50;99.90
18408;DHT22;9330;52.210;21.174;2022-10-16T01:36:55;13.50;99.90
18408;DHT22;9330;52.210;21.174;2022-10-16T01:39:24;13.50;99.90
18408;DHT22;9330;52.210;21.174;2022-10-16T01:41:58;13.50;99.90
18408;DHT22;9330;52.210;21.174;2022-10-16T01:44:31;13.40;99.90
18408;DHT22;9330;52.210;21.174;2022-10-16T01:46:59;13.40;99.90
18408;DHT22;9330;52.210;21.174;2022-10-16T01:49:31;13.40;99.90
18408;DHT22;9330;52.210;21.174;2022-10-16T01:52:00;13.30;99.90
18408;DHT22;9330;52.210;21.174;2022-10-16T01:54:31;13.30;99.90
18408;DHT22;9330;52.210;21.174;2022-10-16T01:56:59;13.30;99.90
18408;DHT22;9330;52.210;21.174;2022-10-16T01:59:31;13.30;99.90
18408;DHT22;9330;52.210;21.174;2022-10-16T02:02:01;13.30;99.90
18408;DHT22;9330;52.210;21.174;2022-10-16T02:04:33;13.30;99.90
18408;DHT22;9330;52.210;21.174;2022-10-16T02:07:01;13.20;99.90
18408;DHT22;9330;52.210;21.174;2022-10-16T02:09:29;13.20;99.90
18408;DHT22;9330;52.210;21.174;2022-10-16T02:11:59;13.20;99.90
18408;DHT22;9330;52.210;21.174;2022-10-16T02:14:29;13.20;99.90
18408;DHT22;9330;52.210;21.174;2022-10-16T02:16:56;13.20;99.90
18408;DHT22;9330;52.210;21.174;2022-10-16T02:19:24;13.20;99.90
18408;DHT22;9330;52.210;21.174;2022-10-16T02:21:54;13.20;99.90
18408;DHT22;9330;52.210;21.174;2022-10-16T02:24:27;13.10;99.90
18408;DHT22;9330;52.210;21.174;2022-10-16T02:27:03;13.10;99.90
18408;DHT22;9330;52.210;21.174;2022-10-16T02:29:38;13.10;99.90
18408;DHT22;9330;52.210;21.174;2022-10-16T02:32:07;13.10;99.90
18408;DHT22;9330;52.210;21.174;2022-10-16T02:34:36;13.10;99.90
18408;DHT22;9330;52.210;21.174;2022-10-16T02:37:04;13.10;99.90
18408;DHT22;9330;52.210;21.174;2022-10-16T02:39:33;13.00;99.90
18408;DHT22;9330;52.210;21.174;2022-10-16T02:42:01;13.10;99.90
18408;DHT22;9330;52.210;21.174;2022-10-16T02:44:28;13.00;99.90
18408;DHT22;9330;52.210;21.174;2022-10-16T02:46:56;13.00;99.90
18408;DHT22;9330;52.210;21.174;2022-10-16T02:49:23;13.00;99.90
18408;DHT22;9330;52.210;21.174;2022-10-16T02:51:50;13.00;99.90
18408;DHT22;9330;52.210;21.174;2022-10-16T02:54:17;13.00;99.90
18408;DHT22;9330;52.210;21.174;2022-10-16T02:56:44;13.00;99.90
18408;DHT22;9330;52.210;21.174;2022-10-16T02:59:11;13.00;99.90
18408;DHT22;9330;52.210;21.174;2022-10-16T03:01:38;13.00;99.90
18408;DHT22;9330;52.210;21.174;2022-10-16T03:04:06;13.00;99.90
18408;DHT22;9330;52.210;21.174;2022-10-16T03:06:33;13.00;99.90
18408;DHT22;9330;52.210;21.174;2022-10-16T03:09:00;13.00;99.90
18408;DHT22;9330;52.210;21.174;2022-10-16T03:11:27;13.00;99.90
18408;DHT22;9330;52.210;21.174;2022-10-16T03:13:54;13.00;99.90
18408;DHT22;9330;52.210;21.174;2022-10-16T03:16:21;13.00;99.90
18408;DHT22;9330;52.210;21.174;2022-10-16T03:18:48;13.00;99.90
18408;DHT22;9330;52.210;21.174;2022-10-16T03:21:17;13.00;99.90
18408;DHT22;9330;52.210;21.174;2022-10-16T03:23:44;12.90;99.90
18408;DHT22;9330;52.210;21.174;2022-10-16T03:26:11;13.00;99.90
18408;DHT22;9330;52.210;21.174;2022-10-16T03:28:38;13.00;99.90
18408;DHT22;9330;52.210;21.174;2022-10-16T03:31:05;13.00;99.90
18408;DHT22;9330;52.210;21.174;2022-10-16T03:33:32;13.00;99.90
18408;DHT22;9330;52.210;21.174;2022-10-16T03:35:59;12.90;99.90
18408;DHT22;9330;52.210;21.174;2022-10-16T03:38:27;13.00;99.90
18408;DHT22;9330;52.210;21.174;2022-10-16T03:40:54;13.00;99.90
18408;DHT22;9330;52.210;21.174;2022-10-16T03:43:21;13.00;99.90
18408;DHT22;9330;52.210;21.174;2022-10-16T03:45:50;13.00;99.90
18408;DHT22;9330;52.210;21.174;2022-10-16T03:48:17;13.00;99.90
18408;DHT22;9330;52.210;21.174;2022-10-16T03:50:44;13.00;99.90
18408;DHT22;9330;52.210;21.174;2022-10-16T03:53:11;13.00;99.90
18408;DHT22;9330;52.210;21.174;2022-10-16T03:55:41;13.00;99.90
18408;DHT22;9330;52.210;21.174;2022-10-16T03:58:08;13.00;99.90
18408;DHT22;9330;52.210;21.174;2022-10-16T04:00:35;13.00;99.90
18408;DHT22;9330;52.210;21.174;2022-10-16T04:03:02;13.00;99.90
18408;DHT22;9330;52.210;21.174;2022-10-16T04:05:29;13.00;99.90
18408;DHT22;9330;52.210;21.174;2022-10-16T04:07:56;12.90;99.90
18408;DHT22;9330;52.210;21.174;2022-10-16T04:10:23;12.90;99.90
18408;DHT22;9330;52.210;21.174;2022-10-16T04:12:51;13.00;99.90
18408;DHT22;9330;52.210;21.174;2022-10-16T04:15:20;12.90;99.90
18408;DHT22;9330;52.210;21.174;2022-10-16T04:17:47;13.00;99.90
18408;DHT22;9330;52.210;21.174;2022-10-16T04:20:14;13.00;99.90
18408;DHT22;9330;52.210;21.174;2022-10-16T04:22:41;13.00;99.90
18408;DHT22;9330;52.210;21.174;2022-10-16T04:25:09;13.00;99.90
18408;DHT22;9330;52.210;21.174;2022-10-16T04:27:36;12.90;99.90
18408;DHT22;9330;52.210;21.174;2022-10-16T04:30:07;12.90;99.90
18408;DHT22;9330;52.210;21.174;2022-10-16T04:32:34;12.90;99.90
18408;DHT22;9330;52.210;21.174;2022-10-16T04:35:01;12.80;99.90
18408;DHT22;9330;52.210;21.174;2022-10-16T04:37:28;12.80;99.90
18408;DHT22;9330;52.210;21.174;2022-10-16T04:39:56;12.70;99.90
18408;DHT22;9330;52.210;21.174;2022-10-16T04:42:23;12.70;99.90
18408;DHT22;9330;52.210;21.174;2022-10-16T04:44:50;12.60;99.90
18408;DHT22;9330;52.210;21.174;2022-10-16T04:47:18;12.60;99.90
18408;DHT22;9330;52.210;21.174;2022-10-16T04:49:45;12.60;99.90
18408;DHT22;9330;52.210;21.174;2022-10-16T04:52:12;12.50;99.90
18408;DHT22;9330;52.210;21.174;2022-10-16T04:54:39;12.60;99.90
18408;DHT22;9330;52.210;21.174;2022-10-16T04:57:07;12.50;99.90
18408;DHT22;9330;52.210;21.174;2022-10-16T04:59:34;12.60;99.90
18408;DHT22;9330;52.210;21.174;2022-10-16T05:02:01;12.50;99.90
18408;DHT22;9330;52.210;21.174;2022-10-16T05:04:29;12.50;99.90
18408;DHT22;9330;52.210;21.174;2022-10-16T05:06:56;12.50;99.90
18408;DHT22;9330;52.210;21.174;2022-10-16T05:09:23;12.50;99.90
18408;DHT22;9330;52.210;21.174;2022-10-16T05:11:50;12.50;99.90
18408;DHT22;9330;52.210;21.174;2022-10-16T05:14:17;12.50;99.90
18408;DHT22;9330;52.210;21.174;2022-10-16T05:16:44;12.50;99.90
18408;DHT22;9330;52.210;21.174;2022-10-16T05:19:13;12.50;99.90
18408;DHT22;9330;52.210;21.174;2022-10-16T05:21:41;12.50;99.90
18408;DHT22;9330;52.210;21.174;2022-10-16T05:24:08;12.50;99.90
18408;DHT22;9330;52.210;21.174;2022-10-16T05:26:35;12.50;99.90
18408;DHT22;9330;52.210;21.174;2022-10-16T05:29:02;12.50;99.90
18408;DHT22;9330;52.210;21.174;2022-10-16T05:31:29;12.50;99.90
18408;DHT22;9330;52.210;21.174;2022-10-16T05:33:58;12.60;99.90
18408;DHT22;9330;52.210;21.174;2022-10-16T05:36:26;12.60;99.90
18408;DHT22;9330;52.210;21.174;2022-10-16T05:38:54;12.60;99.90
18408;DHT22;9330;52.210;21.174;2022-10-16T05:41:21;12.70;99.90
18408;DHT22;9330;52.210;21.174;2022-10-16T05:43:51;12.70;99.90
18408;DHT22;9330;52.210;21.174;2022-10-16T05:46:18;12.70;99.90
18408;DHT22;9330;52.210;21.174;2022-10-16T05:48:45;12.70;99.90
18408;DHT22;9330;52.210;21.174;2022-10-16T05:51:14;12.70;99.90
18408;DHT22;9330;52.210;21.174;2022-10-16T05:53:41;12.70;99.90
18408;DHT22;9330;52.210;21.174;2022-10-16T05:56:11;12.70;99.90
18408;DHT22;9330;52.210;21.174;2022-10-16T05:58:39;12.70;99.90
18408;DHT22;9330;52.210;21.174;2022-10-16T06:01:09;12.60;99.90
18408;DHT22;9330;52.210;21.174;2022-10-16T06:03:36;12.70;99.90
18408;DHT22;9330;52.210;21.174;2022-10-16T06:06:11;12.70;99.90
18408;DHT22;9330;52.210;21.174;2022-10-16T06:08:38;12.60;99.90
18408;DHT22;9330;52.210;21.174;2022-10-16T06:11:07;12.60;99.90
18408;DHT22;9330;52.210;21.174;2022-10-16T06:13:36;12.60;99.90
18408;DHT22;9330;52.210;21.174;2022-10-16T06:16:05;12.60;99.90
18408;DHT22;9330;52.210;21.174;2022-10-16T06:18:32;12.70;99.90
18408;DHT22;9330;52.210;21.174;2022-10-16T06:20:59;12.80;99.90
18408;DHT22;9330;52.210;21.174;2022-10-16T06:23:28;12.80;99.90
18408;DHT22;9330;52.210;21.174;2022-10-16T06:26:04;13.00;99.90
18408;DHT22;9330;52.210;21.174;2022-10-16T06:28:31;13.10;99.90
18408;DHT22;9330;52.210;21.174;2022-10-16T06:31:00;13.20;99.90
18408;DHT22;9330;52.210;21.174;2022-10-16T06:33:27;13.30;99.90
18408;DHT22;9330;52.210;21.174;2022-10-16T06:36:00;13.30;99.90
18408;DHT22;9330;52.210;21.174;2022-10-16T06:38:27;13.40;99.90
18408;DHT22;9330;52.210;21.174;2022-10-16T06:40:54;13.50;99.90
18408;DHT22;9330;52.210;21.174;2022-10-16T06:43:21;13.50;99.90
18408;DHT22;9330;52.210;21.174;2022-10-16T06:45:51;13.60;99.90
18408;DHT22;9330;52.210;21.174;2022-10-16T06:48:19;13.60;99.90
18408;DHT22;9330;52.210;21.174;2022-10-16T06:50:55;13.70;99.90
18408;DHT22;9330;52.210;21.174;2022-10-16T06:53:23;13.70;99.90
18408;DHT22;9330;52.210;21.174;2022-10-16T06:55:50;13.70;99.90
18408;DHT22;9330;52.210;21.174;2022-10-16T06:58:18;13.90;99.90
18408;DHT22;9330;52.210;21.174;2022-10-16T07:00:45;14.00;99.90
18408;DHT22;9330;52.210;21.174;2022-10-16T07:03:12;14.10;99.90
18408;DHT22;9330;52.210;21.174;2022-10-16T07:05:42;14.30;99.90
18408;DHT22;9330;52.210;21.174;2022-10-16T07:08:09;14.30;99.90
18408;DHT22;9330;52.210;21.174;2022-10-16T07:10:36;14.40;99.90
18408;DHT22;9330;52.210;21.174;2022-10-16T07:13:03;14.50;99.90
18408;DHT22;9330;52.210;21.174;2022-10-16T07:15:31;14.60;99.90
18408;DHT22;9330;52.210;21.174;2022-10-16T07:17:57;14.60;99.90
18408;DHT22;9330;52.210;21.174;2022-10-16T07:20:24;14.60;99.90
18408;DHT22;9330;52.210;21.174;2022-10-16T07:22:53;14.60;99.90
18408;DHT22;9330;52.210;21.174;2022-10-16T07:25:20;14.60;99.90
18408;DHT22;9330;52.210;21.174;2022-10-16T07:27:48;14.50;99.90
18408;DHT22;9330;52.210;21.174;2022-10-16T07:30:14;14.60;99.90
18408;DHT22;9330;52.210;21.174;2022-10-16T07:32:42;14.50;99.90
18408;DHT22;9330;52.210;21.174;2022-10-16T07:35:09;14.50;99.90
18408;DHT22;9330;52.210;21.174;2022-10-16T07:37:36;14.40;99.90
18408;DHT22;9330;52.210;21.174;2022-10-16T07:40:06;14.40;99.90
18408;DHT22;9330;52.210;21.174;2022-10-16T07:42:33;14.40;99.90
18408;DHT22;9330;52.210;21.174;2022-10-16T07:45:00;14.40;99.90
18408;DHT22;9330;52.210;21.174;2022-10-16T07:47:27;14.50;99.90
18408;DHT22;9330;52.210;21.174;2022-10-16T07:49:54;14.50;99.90
18408;DHT22;9330;52.210;21.174;2022-10-16T07:52:21;14.60;99.90
18408;DHT22;9330;52.210;21.174;2022-10-16T07:54:48;14.70;99.90
18408;DHT22;9330;52.210;21.174;2022-10-16T07:57:17;15.00;99.90
18408;DHT22;9330;52.210;21.174;2022-10-16T07:59:45;15.30;99.90
18408;DHT22;9330;52.210;21.174;2022-10-16T08:02:12;15.70;99.90
18408;DHT22;9330;52.210;21.174;2022-10-16T08:04:39;16.10;99.90
18408;DHT22;9330;52.210;21.174;2022-10-16T08:07:07;16.60;99.90
18408;DHT22;9330;52.210;21.174;2022-10-16T08:09:34;16.90;99.90
18408;DHT22;9330;52.210;21.174;2022-10-16T08:12:01;17.20;99.90
18408;DHT22;9330;52.210;21.174;2022-10-16T08:14:31;17.50;99.90
18408;DHT22;9330;52.210;21.174;2022-10-16T08:17:01;17.70;99.90
18408;DHT22;9330;52.210;21.174;2022-10-16T08:19:29;18.00;99.90
18408;DHT22;9330;52.210;21.174;2022-10-16T08:21:59;18.10;99.90
18408;DHT22;9330;52.210;21.174;2022-10-16T08:24:27;18.40;99.90
18408;DHT22;9330;52.210;21.174;2022-10-16T08:26:56;18.60;99.90
18408;DHT22;9330;52.210;21.174;2022-10-16T08:29:24;18.70;99.90
18408;DHT22;9330;52.210;21.174;2022-10-16T08:31:52;18.90;99.90
18408;DHT22;9330;52.210;21.174;2022-10-16T08:34:20;18.80;99.90
18408;DHT22;9330;52.210;21.174;2022-10-16T08:36:53;18.70;99.90
18408;DHT22;9330;52.210;21.174;2022-10-16T08:39:25;18.60;99.90
18408;DHT22;9330;52.210;21.174;2022-10-16T08:42:06;18.70;99.90
18408;DHT22;9330;52.210;21.174;2022-10-16T08:44:57;18.80;99.90
18408;DHT22;9330;52.210;21.174;2022-10-16T08:47:35;18.50;99.90
18408;DHT22;9330;52.210;21.174;2022-10-16T08:50:10;18.40;99.90
18408;DHT22;9330;52.210;21.174;2022-10-16T08:52:41;18.20;99.90
18408;DHT22;9330;52.210;21.174;2022-10-16T08:55:17;18.10;99.90
18408;DHT22;9330;52.210;21.174;2022-10-16T08:57:46;17.80;99.90
18408;DHT22;9330;52.210;21.174;2022-10-16T09:00:14;17.60;99.90
18408;DHT22;9330;52.210;21.174;2022-10-16T09:02:45;17.60;99.90
18408;DHT22;9330;52.210;21.174;2022-10-16T09:05:22;17.50;99.90
18408;DHT22;9330;52.210;21.174;2022-10-16T09:07:58;17.50;99.90
18408;DHT22;9330;52.210;21.174;2022-10-16T09:10:35;17.50;99.90
18408;DHT22;9330;52.210;21.174;2022-10-16T09:13:15;17.40;99.90
18408;DHT22;9330;52.210;21.174;2022-10-16T09:15:48;17.40;99.90
18408;DHT22;9330;52.210;21.174;2022-10-16T09:18:22;17.30;99.90
18408;DHT22;9330;52.210;21.174;2022-10-16T09:20:56;17.40;99.90
18408;DHT22;9330;52.210;21.174;2022-10-16T09:23:28;17.40;99.90
18408;DHT22;9330;52.210;21.174;2022-10-16T09:25:56;17.50;99.90
18408;DHT22;9330;52.210;21.174;2022-10-16T09:28:24;17.40;99.90
18408;DHT22;9330;52.210;21.174;2022-10-16T09:30:52;17.50;99.90
18408;DHT22;9330;52.210;21.174;2022-10-16T09:33:25;17.60;99.90
18408;DHT22;9330;52.210;21.174;2022-10-16T09:35:54;17.80;99.90
18408;DHT22;9330;52.210;21.174;2022-10-16T09:38:24;18.00;99.90
18408;DHT22;9330;52.210;21.174;2022-10-16T09:40:51;18.10;99.90
18408;DHT22;9330;52.210;21.174;2022-10-16T09:43:24;18.20;99.90
18408;DHT22;9330;52.210;21.174;2022-10-16T09:45:54;18.40;99.90
18408;DHT22;9330;52.210;21.174;2022-10-16T09:48:25;18.50;99.90
18408;DHT22;9330;52.210;21.174;2022-10-16T09:50:57;18.60;99.90
18408;DHT22;9330;52.210;21.174;2022-10-16T09:53:27;18.80;99.90
18408;DHT22;9330;52.210;21.174;2022-10-16T09:56:04;18.80;99.90
18408;DHT22;9330;52.210;21.174;2022-10-16T09:58:32;18.80;99.90
18408;DHT22;9330;52.210;21.174;2022-10-16T10:01:01;18.80;99.90
18408;DHT22;9330;52.210;21.174;2022-10-16T10:03:37;18.70;99.90
18408;DHT22;9330;52.210;21.174;2022-10-16T10:06:15;18.80;99.90
18408;DHT22;9330;52.210;21.174;2022-10-16T10:08:56;18.80;99.90
18408;DHT22;9330;52.210;21.174;2022-10-16T10:11:48;18.90;99.90
18408;DHT22;9330;52.210;21.174;2022-10-16T10:14:27;19.00;99.90
18408;DHT22;9330;52.210;21.174;2022-10-16T10:17:10;19.10;99.90
18408;DHT22;9330;52.210;21.174;2022-10-16T10:19:40;19.10;99.90
18408;DHT22;9330;52.210;21.174;2022-10-16T10:22:19;19.10;99.90
18408;DHT22;9330;52.210;21.174;2022-10-16T10:24:55;19.10;99.90
18408;DHT22;9330;52.210;21.174;2022-10-16T10:27:28;19.10;99.90
18408;DHT22;9330;52.210;21.174;2022-10-16T10:30:01;19.10;99.90
18408;DHT22;9330;52.210;21.174;2022-10-16T10:32:35;19.00;99.90
18408;DHT22;9330;52.210;21.174;2022-10-16T10:35:15;19.10;99.90
18408;DHT22;9330;52.210;21.174;2022-10-16T10:38:02;19.00;99.90
18408;DHT22;9330;52.210;21.174;2022-10-16T10:40:47;19.00;99.90
18408;DHT22;9330;52.210;21.174;2022-10-16T10:43:29;19.10;99.90
18408;DHT22;9330;52.210;21.174;2022-10-16T10:46:02;19.10;99.90
18408;DHT22;9330;52.210;21.174;2022-10-16T10:48:52;19.10;99.90
18408;DHT22;9330;52.210;21.174;2022-10-16T10:51:28;19.20;99.90
18408;DHT22;9330;52.210;21.174;2022-10-16T10:54:07;19.20;99.90
18408;DHT22;9330;52.210;21.174;2022-10-16T10:56:47;19.20;99.90
18408;DHT22;9330;52.210;21.174;2022-10-16T11:02:17;19.30;99.90
18408;DHT22;9330;52.210;21.174;2022-10-16T11:07:47;19.30;99.90
18408;DHT22;9330;52.210;21.174;2022-10-16T11:10:18;19.40;99.90
18408;DHT22;9330;52.210;21.174;2022-10-16T11:12:51;19.50;99.90
18408;DHT22;9330;52.210;21.174;2022-10-16T11:15:23;19.60;99.90
18408;DHT22;9330;52.210;21.174;2022-10-16T11:17:54;19.70;99.90
18408;DHT22;9330;52.210;21.174;2022-10-16T11:20:26;19.70;99.90
18408;DHT22;9330;52.210;21.174;2022-10-16T11:23:00;19.80;99.90
18408;DHT22;9330;52.210;21.174;2022-10-16T11:25:30;19.70;99.90
18408;DHT22;9330;52.210;21.174;2022-10-16T11:28:02;19.80;99.90
18408;DHT22;9330;52.210;21.174;2022-10-16T11:30:39;19.80;99.90
18408;DHT22;9330;52.210;21.174;2022-10-16T11:33:22;19.70;99.90
18408;DHT22;9330;52.210;21.174;2022-10-16T11:35:53;19.70;99.90
18408;DHT22;9330;52.210;21.174;2022-10-16T11:38:28;19.70;99.90
18408;DHT22;9330;52.210;21.174;2022-10-16T11:41:00;19.70;99.90
18408;DHT22;9330;52.210;21.174;2022-10-16T11:43:32;19.70;99.90
18408;DHT22;9330;52.210;21.174;2022-10-16T11:46:04;19.70;99.90
18408;DHT22;9330;52.210;21.174;2022-10-16T11:48:39;19.70;99.90
18408;DHT22;9330;52.210;21.174;2022-10-16T11:51:14;19.80;99.90
18408;DHT22;9330;52.210;21.174;2022-10-16T11:53:46;19.90;99.90
18408;DHT22;9330;52.210;21.174;2022-10-16T11:56:20;20.00;99.90
18408;DHT22;9330;52.210;21.174;2022-10-16T11:58:56;20.20;99.90
18408;DHT22;9330;52.210;21.174;2022-10-16T12:01:29;20.30;99.90
18408;DHT22;9330;52.210;21.174;2022-10-16T12:04:16;20.50;99.90
18408;DHT22;9330;52.210;21.174;2022-10-16T12:06:49;20.60;99.90
18408;DHT22;9330;52.210;21.174;2022-10-16T12:09:24;20.60;99.90
18408;DHT22;9330;52.210;21.174;2022-10-16T12:11:52;20.60;99.90
18408;DHT22;9330;52.210;21.174;2022-10-16T12:14:35;20.60;99.90
18408;DHT22;9330;52.210;21.174;2022-10-16T12:17:04;20.50;99.90
18408;DHT22;9330;52.210;21.174;2022-10-16T12:19:58;20.40;99.90
18408;DHT22;9330;52.210;21.174;2022-10-16T12:22:28;20.30;99.90
18408;DHT22;9330;52.210;21.174;2022-10-16T12:24:57;20.30;99.90
18408;DHT22;9330;52.210;21.174;2022-10-16T12:27:30;20.30;99.90
18408;DHT22;9330;52.210;21.174;2022-10-16T12:30:01;20.20;99.90
18408;DHT22;9330;52.210;21.174;2022-10-16T12:32:31;20.20;99.90
18408;DHT22;9330;52.210;21.174;2022-10-16T12:35:01;20.20;99.90
18408;DHT22;9330;52.210;21.174;2022-10-16T12:37:32;20.10;99.90
18408;DHT22;9330;52.210;21.174;2022-10-16T12:40:12;20.00;99.90
18408;DHT22;9330;52.210;21.174;2022-10-16T12:42:40;20.00;99.90
18408;DHT22;9330;52.210;21.174;2022-10-16T12:45:24;19.90;99.90
18408;DHT22;9330;52.210;21.174;2022-10-16T12:47:53;19.90;99.90
18408;DHT22;9330;52.210;21.174;2022-10-16T12:50:32;19.90;99.90
18408;DHT22;9330;52.210;21.174;2022-10-16T12:53:01;19.90;99.90
18408;DHT22;9330;52.210;21.174;2022-10-16T12:55:40;19.80;99.90
18408;DHT22;9330;52.210;21.174;2022-10-16T12:58:17;19.80;99.90
18408;DHT22;9330;52.210;21.174;2022-10-16T13:00:53;19.80;99.90
18408;DHT22;9330;52.210;21.174;2022-10-16T13:03:47;19.70;99.90
18408;DHT22;9330;52.210;21.174;2022-10-16T13:06:26;19.70;99.90
18408;DHT22;9330;52.210;21.174;2022-10-16T13:09:15;19.60;99.90
18408;DHT22;9330;52.210;21.174;2022-10-16T13:11:59;19.60;99.90
18408;DHT22;9330;52.210;21.174;2022-10-16T13:14:47;19.50;99.90
18408;DHT22;9330;52.210;21.174;2022-10-16T13:17:23;19.40;99.90
18408;DHT22;9330;52.210;21.174;2022-10-16T13:19:59;19.30;99.90
18408;DHT22;9330;52.210;21.174;2022-10-16T13:22:33;19.30;99.90
18408;DHT22;9330;52.210;21.174;2022-10-16T13:25:15;19.20;99.90
18408;DHT22;9330;52.210;21.174;2022-10-16T13:27:52;19.20;99.90
18408;DHT22;9330;52.210;21.174;2022-10-16T13:30:22;19.20;99.90
18408;DHT22;9330;52.210;21.174;2022-10-16T13:32:54;19.20;99.90
18408;DHT22;9330;52.210;21.174;2022-10-16T13:35:25;19.20;99.90
18408;DHT22;9330;52.210;21.174;2022-10-16T13:38:11;19.20;99.90
18408;DHT22;9330;52.210;21.174;2022-10-16T13:40:52;19.20;99.90
18408;DHT22;9330;52.210;21.174;2022-10-16T13:43:23;19.20;99.90
18408;DHT22;9330;52.210;21.174;2022-10-16T13:45:59;19.20;99.90
18408;DHT22;9330;52.210;21.174;2022-10-16T13:48:28;19.10;99.90
18408;DHT22;9330;52.210;21.174;2022-10-16T13:51:03;19.00;99.90
18408;DHT22;9330;52.210;21.174;2022-10-16T13:53:33;19.10;99.90
18408;DHT22;9330;52.210;21.174;2022-10-16T13:56:02;19.10;99.90
18408;DHT22;9330;52.210;21.174;2022-10-16T13:58:31;19.10;99.90
18408;DHT22;9330;52.210;21.174;2022-10-16T14:01:00;19.10;99.90
18408;DHT22;9330;52.210;21.174;2022-10-16T14:03:28;19.00;99.90
18408;DHT22;9330;52.210;21.174;2022-10-16T14:05:59;19.00;99.90
18408;DHT22;9330;52.210;21.174;2022-10-16T14:08:27;19.00;99.90
18408;DHT22;9330;52.210;21.174;2022-10-16T14:10:56;19.00;99.90
18408;DHT22;9330;52.210;21.174;2022-10-16T14:13:34;19.00;99.90
18408;DHT22;9330;52.210;21.174;2022-10-16T14:16:06;19.00;99.90
18408;DHT22;9330;52.210;21.174;2022-10-16T14:18:34;19.00;99.90
18408;DHT22;9330;52.210;21.174;2022-10-16T14:21:06;19.00;99.90
18408;DHT22;9330;52.210;21.174;2022-10-16T14:23:35;18.90;99.90
18408;DHT22;9330;52.210;21.174;2022-10-16T14:26:14;18.90;99.90
18408;DHT22;9330;52.210;21.174;2022-10-16T14:28:43;18.90;99.90
18408;DHT22;9330;52.210;21.174;2022-10-16T14:31:25;18.90;99.90
18408;DHT22;9330;52.210;21.174;2022-10-16T14:33:53;18.80;99.90
18408;DHT22;9330;52.210;21.174;2022-10-16T14:36:20;18.80;99.90
18408;DHT22;9330;52.210;21.174;2022-10-16T14:38:50;18.80;99.90
18408;DHT22;9330;52.210;21.174;2022-10-16T14:41:21;18.70;99.90
18408;DHT22;9330;52.210;21.174;2022-10-16T14:43:53;18.70;99.90
18408;DHT22;9330;52.210;21.174;2022-10-16T14:46:22;18.70;99.90
18408;DHT22;9330;52.210;21.174;2022-10-16T14:48:58;18.70;99.90
18408;DHT22;9330;52.210;21.174;2022-10-16T14:51:26;18.70;99.90
18408;DHT22;9330;52.210;21.174;2022-10-16T14:53:53;18.60;99.90
18408;DHT22;9330;52.210;21.174;2022-10-16T14:56:22;18.60;99.90
18408;DHT22;9330;52.210;21.174;2022-10-16T14:58:52;18.60;99.90
18408;DHT22;9330;52.210;21.174;2022-10-16T15:01:19;18.60;99.90
18408;DHT22;9330;52.210;21.174;2022-10-16T15:03:46;18.60;99.90
18408;DHT22;9330;52.210;21.174;2022-10-16T15:06:15;18.60;99.90
18408;DHT22;9330;52.210;21.174;2022-10-16T15:08:42;18.60;99.90
18408;DHT22;9330;52.210;21.174;2022-10-16T15:11:11;18.60;99.90
18408;DHT22;9330;52.210;21.174;2022-10-16T15:13:39;18.50;99.90
18408;DHT22;9330;52.210;21.174;2022-10-16T15:16:11;18.50;99.90
18408;DHT22;9330;52.210;21.174;2022-10-16T15:18:38;18.50;99.90
18408;DHT22;9330;52.210;21.174;2022-10-16T15:21:05;18.40;99.90
18408;DHT22;9330;52.210;21.174;2022-10-16T15:23:32;18.40;99.90
18408;DHT22;9330;52.210;21.174;2022-10-16T15:25:59;18.40;99.90
18408;DHT22;9330;52.210;21.174;2022-10-16T15:28:26;18.30;99.90
18408;DHT22;9330;52.210;21.174;2022-10-16T15:30:55;18.30;99.90
18408;DHT22;9330;52.210;21.174;2022-10-16T15:33:25;18.20;99.90
18408;DHT22;9330;52.210;21.174;2022-10-16T15:35:58;18.20;99.90
18408;DHT22;9330;52.210;21.174;2022-10-16T15:38:30;18.10;99.90
18408;DHT22;9330;52.210;21.174;2022-10-16T15:40:57;18.10;99.90
18408;DHT22;9330;52.210;21.174;2022-10-16T15:43:24;18.00;99.90
18408;DHT22;9330;52.210;21.174;2022-10-16T15:46:00;18.00;99.90
18408;DHT22;9330;52.210;21.174;2022-10-16T15:48:29;18.00;99.90
18408;DHT22;9330;52.210;21.174;2022-10-16T15:50:56;17.90;99.90
18408;DHT22;9330;52.210;21.174;2022-10-16T15:53:23;17.90;99.90
18408;DHT22;9330;52.210;21.174;2022-10-16T15:55:50;17.80;99.90
18408;DHT22;9330;52.210;21.174;2022-10-16T15:58:17;17.80;99.90
18408;DHT22;9330;52.210;21.174;2022-10-16T16:00:44;17.80;99.90